sensor_id;sensor_type;location;lat;lon;timestamp;P1;durP1;ratioP1;P2;durP2;ratioP2
38787;SDS011;24536;45.488;12.238;2023-04-24T00:01:27;7.50;;;4.80;;
38787;SDS011;24536;45.488;12.238;2023-04-24T00:03:54;8.65;;;5.57;;
38787;SDS011;24536;45.488;12.238;2023-04-24T00:06:24;7.95;;;5.78;;
38787;SDS011;24536;45.488;12.238;2023-04-24T00:08:58;8.88;;;5.40;;
38787;SDS011;24536;45.488;12.238;2023-04-24T00:13:54;6.63;;;4.13;;
38787;SDS011;24536;45.488;12.238;2023-04-24T00:16:20;5.25;;;4.25;;
38787;SDS011;24536;45.488;12.238;2023-04-24T00:18:46;5.10;;;4.38;;
38787;SDS011;24536;45.488;12.238;2023-04-24T00:21:12;6.75;;;5.13;;
38787;SDS011;24536;45.488;12.238;2023-04-24T00:23:39;7.75;;;4.38;;
38787;SDS011;24536;45.488;12.238;2023-04-24T00:26:05;10.00;;;5.47;;
38787;SDS011;24536;45.488;12.238;2023-04-24T00:28:31;5.10;;;4.15;;
38787;SDS011;24536;45.488;12.238;2023-04-24T00:30:56;5.47;;;4.50;;
38787;SDS011;24536;45.488;12.238;2023-04-24T00:33:22;5.70;;;4.47;;
38787;SDS011;24536;45.488;12.238;2023-04-24T00:35:48;6.20;;;4.40;;
38787;SDS011;24536;45.488;12.238;2023-04-24T00:38:13;8.48;;;4.45;;
38787;SDS011;24536;45.488;12.238;2023-04-24T00:40:39;5.60;;;5.00;;
38787;SDS011;24536;45.488;12.238;2023-04-24T00:43:05;7.53;;;4.53;;
38787;SDS011;24536;45.488;12.238;2023-04-24T00:45:31;5.47;;;4.70;;
38787;SDS011;24536;45.488;12.238;2023-04-24T00:47:56;6.05;;;4.57;;
38787;SDS011;24536;45.488;12.238;2023-04-24T00:50:23;5.88;;;4.47;;
38787;SDS011;24536;45.488;12.238;2023-04-24T00:52:49;7.18;;;4.93;;
38787;SDS011;24536;45.488;12.238;2023-04-24T00:55:15;5.45;;;4.80;;
38787;SDS011;24536;45.488;12.238;2023-04-24T00:57:41;6.93;;;4.85;;
38787;SDS011;24536;45.488;12.238;2023-04-24T01:00:08;6.30;;;4.72;;
38787;SDS011;24536;45.488;12.238;2023-04-24T01:02:40;5.93;;;5.15;;
38787;SDS011;24536;45.488;12.238;2023-04-24T01:05:10;8.07;;;5.43;;
38787;SDS011;24536;45.488;12.238;2023-04-24T01:10:09;7.60;;;5.80;;
38787;SDS011;24536;45.488;12.238;2023-04-24T01:12:35;7.28;;;5.18;;
38787;SDS011;24536;45.488;12.238;2023-04-24T01:15:00;7.22;;;5.93;;
38787;SDS011;24536;45.488;12.238;2023-04-24T01:17:26;8.95;;;5.80;;
38787;SDS011;24536;45.488;12.238;2023-04-24T01:19:52;6.88;;;4.95;;
38787;SDS011;24536;45.488;12.238;2023-04-24T01:22:21;8.55;;;5.80;;
38787;SDS011;24536;45.488;12.238;2023-04-24T01:24:47;6.88;;;5.60;;
38787;SDS011;24536;45.488;12.238;2023-04-24T01:27:13;11.90;;;5.78;;
38787;SDS011;24536;45.488;12.238;2023-04-24T01:29:40;10.68;;;5.68;;
38787;SDS011;24536;45.488;12.238;2023-04-24T01:32:06;8.73;;;5.95;;
38787;SDS011;24536;45.488;12.238;2023-04-24T01:34:31;6.85;;;5.30;;
38787;SDS011;24536;45.488;12.238;2023-04-24T01:36:57;10.07;;;6.25;;
38787;SDS011;24536;45.488;12.238;2023-04-24T01:39:23;7.90;;;5.85;;
38787;SDS011;24536;45.488;12.238;2023-04-24T01:41:50;10.45;;;5.72;;
38787;SDS011;24536;45.488;12.238;2023-04-24T01:44:17;7.32;;;5.53;;
38787;SDS011;24536;45.488;12.238;2023-04-24T01:46:43;10.27;;;7.43;;
38787;SDS011;24536;45.488;12.238;2023-04-24T01:49:09;10.30;;;6.60;;
38787;SDS011;24536;45.488;12.238;2023-04-24T01:51:35;8.57;;;5.78;;
38787;SDS011;24536;45.488;12.238;2023-04-24T01:54:01;6.93;;;5.90;;
38787;SDS011;24536;45.488;12.238;2023-04-24T01:56:31;8.52;;;6.13;;
38787;SDS011;24536;45.488;12.238;2023-04-24T01:58:59;7.25;;;5.95;;
38787;SDS011;24536;45.488;12.238;2023-04-24T02:01:27;8.25;;;5.75;;
38787;SDS011;24536;45.488;12.238;2023-04-24T02:03:57;9.82;;;6.45;;
38787;SDS011;24536;45.488;12.238;2023-04-24T02:06:23;8.38;;;6.10;;
38787;SDS011;24536;45.488;12.238;2023-04-24T02:08:49;6.93;;;5.68;;
38787;SDS011;24536;45.488;12.238;2023-04-24T02:11:14;7.13;;;5.60;;
38787;SDS011;24536;45.488;12.238;2023-04-24T02:13:40;10.57;;;6.68;;
38787;SDS011;24536;45.488;12.238;2023-04-24T02:16:06;8.40;;;6.93;;
38787;SDS011;24536;45.488;12.238;2023-04-24T02:18:31;7.90;;;6.05;;
38787;SDS011;24536;45.488;12.238;2023-04-24T02:20:57;8.30;;;6.97;;
38787;SDS011;24536;45.488;12.238;2023-04-24T02:23:23;8.48;;;7.20;;
38787;SDS011;24536;45.488;12.238;2023-04-24T02:25:48;11.15;;;7.88;;
38787;SDS011;24536;45.488;12.238;2023-04-24T02:28:14;9.13;;;6.93;;
38787;SDS011;24536;45.488;12.238;2023-04-24T02:30:40;8.05;;;6.13;;
38787;SDS011;24536;45.488;12.238;2023-04-24T02:33:05;6.93;;;5.88;;
38787;SDS011;24536;45.488;12.238;2023-04-24T02:35:31;10.57;;;7.03;;
38787;SDS011;24536;45.488;12.238;2023-04-24T02:37:56;12.10;;;6.85;;
38787;SDS011;24536;45.488;12.238;2023-04-24T02:40:22;8.68;;;5.97;;
38787;SDS011;24536;45.488;12.238;2023-04-24T02:42:48;8.85;;;6.68;;
38787;SDS011;24536;45.488;12.238;2023-04-24T02:45:13;8.63;;;6.47;;
38787;SDS011;24536;45.488;12.238;2023-04-24T02:47:39;7.38;;;5.82;;
38787;SDS011;24536;45.488;12.238;2023-04-24T02:50:05;6.85;;;5.90;;
38787;SDS011;24536;45.488;12.238;2023-04-24T02:52:31;7.47;;;5.82;;
38787;SDS011;24536;45.488;12.238;2023-04-24T02:54:57;9.93;;;5.93;;
38787;SDS011;24536;45.488;12.238;2023-04-24T02:57:22;5.88;;;5.15;;
38787;SDS011;24536;45.488;12.238;2023-04-24T02:59:48;7.93;;;5.88;;
38787;SDS011;24536;45.488;12.238;2023-04-24T03:02:14;8.68;;;5.63;;
38787;SDS011;24536;45.488;12.238;2023-04-24T03:04:40;7.28;;;5.40;;
38787;SDS011;24536;45.488;12.238;2023-04-24T03:07:07;9.23;;;5.50;;
38787;SDS011;24536;45.488;12.238;2023-04-24T03:09:33;6.25;;;5.18;;
38787;SDS011;24536;45.488;12.238;2023-04-24T03:11:59;8.50;;;4.90;;
38787;SDS011;24536;45.488;12.238;2023-04-24T03:14:25;9.85;;;5.00;;
38787;SDS011;24536;45.488;12.238;2023-04-24T03:16:51;6.53;;;5.05;;
38787;SDS011;24536;45.488;12.238;2023-04-24T03:19:16;9.23;;;6.25;;
38787;SDS011;24536;45.488;12.238;2023-04-24T03:21:42;9.70;;;6.85;;
38787;SDS011;24536;45.488;12.238;2023-04-24T03:24:08;6.40;;;5.05;;
38787;SDS011;24536;45.488;12.238;2023-04-24T03:26:34;9.10;;;5.40;;
38787;SDS011;24536;45.488;12.238;2023-04-24T03:29:00;8.32;;;6.32;;
38787;SDS011;24536;45.488;12.238;2023-04-24T03:31:26;6.05;;;4.75;;
38787;SDS011;24536;45.488;12.238;2023-04-24T03:33:52;8.38;;;5.07;;
38787;SDS011;24536;45.488;12.238;2023-04-24T03:36:17;9.82;;;6.07;;
38787;SDS011;24536;45.488;12.238;2023-04-24T03:38:44;8.95;;;5.45;;
38787;SDS011;24536;45.488;12.238;2023-04-24T03:41:10;7.05;;;4.97;;
38787;SDS011;24536;45.488;12.238;2023-04-24T03:43:37;8.20;;;5.47;;
38787;SDS011;24536;45.488;12.238;2023-04-24T03:46:03;8.52;;;5.10;;
38787;SDS011;24536;45.488;12.238;2023-04-24T03:48:28;7.18;;;4.80;;
38787;SDS011;24536;45.488;12.238;2023-04-24T03:50:54;7.78;;;5.07;;
38787;SDS011;24536;45.488;12.238;2023-04-24T03:53:20;9.65;;;5.63;;
38787;SDS011;24536;45.488;12.238;2023-04-24T03:55:46;6.07;;;5.20;;
38787;SDS011;24536;45.488;12.238;2023-04-24T03:58:12;7.78;;;5.00;;
38787;SDS011;24536;45.488;12.238;2023-04-24T04:00:44;7.82;;;5.07;;
38787;SDS011;24536;45.488;12.238;2023-04-24T04:03:12;10.82;;;5.57;;
38787;SDS011;24536;45.488;12.238;2023-04-24T04:05:39;6.85;;;5.05;;
38787;SDS011;24536;45.488;12.238;2023-04-24T04:08:05;9.10;;;5.45;;
38787;SDS011;24536;45.488;12.238;2023-04-24T04:10:30;6.65;;;4.75;;
38787;SDS011;24536;45.488;12.238;2023-04-24T04:12:56;9.13;;;5.50;;
38787;SDS011;24536;45.488;12.238;2023-04-24T04:15:22;6.82;;;5.22;;
38787;SDS011;24536;45.488;12.238;2023-04-24T04:17:48;9.02;;;5.78;;
38787;SDS011;24536;45.488;12.238;2023-04-24T04:20:14;8.18;;;5.07;;
38787;SDS011;24536;45.488;12.238;2023-04-24T04:22:40;7.68;;;5.00;;
38787;SDS011;24536;45.488;12.238;2023-04-24T04:25:06;8.00;;;5.97;;
38787;SDS011;24536;45.488;12.238;2023-04-24T04:27:33;7.65;;;5.05;;
38787;SDS011;24536;45.488;12.238;2023-04-24T04:29:59;7.90;;;4.97;;
38787;SDS011;24536;45.488;12.238;2023-04-24T04:32:33;8.00;;;4.78;;
38787;SDS011;24536;45.488;12.238;2023-04-24T04:35:02;8.23;;;5.32;;
38787;SDS011;24536;45.488;12.238;2023-04-24T04:37:31;6.88;;;5.75;;
38787;SDS011;24536;45.488;12.238;2023-04-24T04:39:59;8.23;;;5.32;;
38787;SDS011;24536;45.488;12.238;2023-04-24T04:42:26;8.50;;;6.20;;
38787;SDS011;24536;45.488;12.238;2023-04-24T04:44:52;7.22;;;5.65;;
38787;SDS011;24536;45.488;12.238;2023-04-24T04:47:18;10.93;;;7.88;;
38787;SDS011;24536;45.488;12.238;2023-04-24T04:49:47;10.40;;;6.93;;
38787;SDS011;24536;45.488;12.238;2023-04-24T04:52:13;8.02;;;6.25;;
38787;SDS011;24536;45.488;12.238;2023-04-24T04:54:39;9.68;;;6.60;;
38787;SDS011;24536;45.488;12.238;2023-04-24T04:57:07;9.05;;;6.10;;
38787;SDS011;24536;45.488;12.238;2023-04-24T04:59:33;9.32;;;6.45;;
38787;SDS011;24536;45.488;12.238;2023-04-24T05:01:58;9.07;;;6.25;;
38787;SDS011;24536;45.488;12.238;2023-04-24T05:04:24;9.77;;;6.90;;
38787;SDS011;24536;45.488;12.238;2023-04-24T05:06:50;9.63;;;6.47;;
38787;SDS011;24536;45.488;12.238;2023-04-24T05:09:16;8.38;;;6.00;;
38787;SDS011;24536;45.488;12.238;2023-04-24T05:11:41;7.53;;;5.78;;
38787;SDS011;24536;45.488;12.238;2023-04-24T05:14:07;11.65;;;6.20;;
38787;SDS011;24536;45.488;12.238;2023-04-24T05:16:33;9.80;;;6.32;;
38787;SDS011;24536;45.488;12.238;2023-04-24T05:18:59;10.02;;;6.18;;
38787;SDS011;24536;45.488;12.238;2023-04-24T05:21:25;9.20;;;6.45;;
38787;SDS011;24536;45.488;12.238;2023-04-24T05:23:51;10.70;;;6.45;;
38787;SDS011;24536;45.488;12.238;2023-04-24T05:26:17;9.10;;;6.38;;
38787;SDS011;24536;45.488;12.238;2023-04-24T05:28:43;9.20;;;5.75;;
38787;SDS011;24536;45.488;12.238;2023-04-24T05:31:08;8.15;;;6.25;;
38787;SDS011;24536;45.488;12.238;2023-04-24T05:33:34;10.63;;;7.20;;
38787;SDS011;24536;45.488;12.238;2023-04-24T05:36:00;8.52;;;5.82;;
38787;SDS011;24536;45.488;12.238;2023-04-24T05:38:26;8.68;;;6.22;;
38787;SDS011;24536;45.488;12.238;2023-04-24T05:40:51;8.95;;;5.78;;
38787;SDS011;24536;45.488;12.238;2023-04-24T05:43:17;11.50;;;6.70;;
38787;SDS011;24536;45.488;12.238;2023-04-24T05:45:42;10.68;;;6.28;;
38787;SDS011;24536;45.488;12.238;2023-04-24T05:48:08;10.18;;;6.78;;
38787;SDS011;24536;45.488;12.238;2023-04-24T05:50:34;12.43;;;6.85;;
38787;SDS011;24536;45.488;12.238;2023-04-24T05:52:59;11.73;;;6.32;;
38787;SDS011;24536;45.488;12.238;2023-04-24T05:55:27;10.82;;;5.95;;
38787;SDS011;24536;45.488;12.238;2023-04-24T05:57:53;11.00;;;6.75;;
38787;SDS011;24536;45.488;12.238;2023-04-24T06:00:21;8.38;;;6.40;;
38787;SDS011;24536;45.488;12.238;2023-04-24T06:02:47;8.52;;;6.22;;
38787;SDS011;24536;45.488;12.238;2023-04-24T06:05:13;10.15;;;6.47;;
38787;SDS011;24536;45.488;12.238;2023-04-24T06:07:39;9.43;;;6.50;;
38787;SDS011;24536;45.488;12.238;2023-04-24T06:10:05;9.13;;;5.88;;
38787;SDS011;24536;45.488;12.238;2023-04-24T06:12:31;9.40;;;6.32;;
38787;SDS011;24536;45.488;12.238;2023-04-24T06:14:57;11.02;;;6.65;;
38787;SDS011;24536;45.488;12.238;2023-04-24T06:17:22;13.75;;;6.90;;
38787;SDS011;24536;45.488;12.238;2023-04-24T06:19:48;9.15;;;6.55;;
38787;SDS011;24536;45.488;12.238;2023-04-24T06:22:14;11.52;;;6.53;;
38787;SDS011;24536;45.488;12.238;2023-04-24T06:24:40;11.05;;;6.22;;
38787;SDS011;24536;45.488;12.238;2023-04-24T06:27:08;10.93;;;6.85;;
38787;SDS011;24536;45.488;12.238;2023-04-24T06:29:35;7.93;;;6.78;;
38787;SDS011;24536;45.488;12.238;2023-04-24T06:32:01;11.43;;;6.60;;
38787;SDS011;24536;45.488;12.238;2023-04-24T06:34:27;7.28;;;5.68;;
38787;SDS011;24536;45.488;12.238;2023-04-24T06:36:53;9.73;;;5.45;;
38787;SDS011;24536;45.488;12.238;2023-04-24T06:39:20;10.68;;;5.88;;
38787;SDS011;24536;45.488;12.238;2023-04-24T06:41:45;9.82;;;5.47;;
38787;SDS011;24536;45.488;12.238;2023-04-24T06:44:11;12.02;;;6.32;;
38787;SDS011;24536;45.488;12.238;2023-04-24T06:46:36;9.50;;;6.40;;
38787;SDS011;24536;45.488;12.238;2023-04-24T06:49:02;7.60;;;5.75;;
38787;SDS011;24536;45.488;12.238;2023-04-24T06:51:28;9.85;;;5.63;;
38787;SDS011;24536;45.488;12.238;2023-04-24T06:53:54;7.45;;;5.50;;
38787;SDS011;24536;45.488;12.238;2023-04-24T06:56:21;10.68;;;6.35;;
38787;SDS011;24536;45.488;12.238;2023-04-24T06:58:47;11.15;;;5.95;;
38787;SDS011;24536;45.488;12.238;2023-04-24T07:01:13;9.18;;;6.00;;
38787;SDS011;24536;45.488;12.238;2023-04-24T07:03:39;8.30;;;4.43;;
38787;SDS011;24536;45.488;12.238;2023-04-24T07:06:05;7.65;;;4.63;;
38787;SDS011;24536;45.488;12.238;2023-04-24T07:08:30;7.25;;;3.65;;
38787;SDS011;24536;45.488;12.238;2023-04-24T07:10:58;6.93;;;3.97;;
38787;SDS011;24536;45.488;12.238;2023-04-24T07:13:24;6.22;;;3.75;;
38787;SDS011;24536;45.488;12.238;2023-04-24T07:15:50;6.50;;;3.42;;
38787;SDS011;24536;45.488;12.238;2023-04-24T07:18:17;5.10;;;3.40;;
38787;SDS011;24536;45.488;12.238;2023-04-24T07:20:43;3.72;;;2.50;;
38787;SDS011;24536;45.488;12.238;2023-04-24T07:23:09;6.13;;;2.95;;
38787;SDS011;24536;45.488;12.238;2023-04-24T07:25:35;8.32;;;2.85;;
38787;SDS011;24536;45.488;12.238;2023-04-24T07:28:01;4.70;;;2.67;;
38787;SDS011;24536;45.488;12.238;2023-04-24T07:30:27;7.90;;;3.33;;
38787;SDS011;24536;45.488;12.238;2023-04-24T07:32:57;8.43;;;3.15;;
38787;SDS011;24536;45.488;12.238;2023-04-24T07:35:24;5.05;;;2.70;;
38787;SDS011;24536;45.488;12.238;2023-04-24T07:37:51;6.20;;;3.03;;
38787;SDS011;24536;45.488;12.238;2023-04-24T07:40:20;3.90;;;2.77;;
38787;SDS011;24536;45.488;12.238;2023-04-24T07:42:47;6.22;;;2.97;;
38787;SDS011;24536;45.488;12.238;2023-04-24T07:45:15;4.28;;;3.17;;
38787;SDS011;24536;45.488;12.238;2023-04-24T07:47:42;4.60;;;3.03;;
38787;SDS011;24536;45.488;12.238;2023-04-24T07:50:11;7.03;;;3.38;;
38787;SDS011;24536;45.488;12.238;2023-04-24T07:52:37;4.82;;;3.58;;
38787;SDS011;24536;45.488;12.238;2023-04-24T07:55:03;4.80;;;2.50;;
38787;SDS011;24536;45.488;12.238;2023-04-24T07:57:29;3.92;;;2.90;;
38787;SDS011;24536;45.488;12.238;2023-04-24T07:59:55;6.32;;;2.97;;
38787;SDS011;24536;45.488;12.238;2023-04-24T08:02:21;4.85;;;2.63;;
38787;SDS011;24536;45.488;12.238;2023-04-24T08:04:51;6.38;;;3.30;;
38787;SDS011;24536;45.488;12.238;2023-04-24T08:07:18;5.38;;;3.35;;
38787;SDS011;24536;45.488;12.238;2023-04-24T08:09:44;6.13;;;2.70;;
38787;SDS011;24536;45.488;12.238;2023-04-24T08:12:10;7.00;;;3.80;;
38787;SDS011;24536;45.488;12.238;2023-04-24T08:14:36;6.28;;;3.38;;
38787;SDS011;24536;45.488;12.238;2023-04-24T08:17:02;5.63;;;3.13;;
38787;SDS011;24536;45.488;12.238;2023-04-24T08:19:28;7.57;;;3.15;;
38787;SDS011;24536;45.488;12.238;2023-04-24T08:21:54;7.07;;;4.10;;
38787;SDS011;24536;45.488;12.238;2023-04-24T08:24:20;9.02;;;3.50;;
38787;SDS011;24536;45.488;12.238;2023-04-24T08:26:45;5.95;;;3.53;;
38787;SDS011;24536;45.488;12.238;2023-04-24T08:29:14;8.05;;;3.65;;
38787;SDS011;24536;45.488;12.238;2023-04-24T08:31:40;4.13;;;2.80;;
38787;SDS011;24536;45.488;12.238;2023-04-24T08:34:05;5.60;;;3.38;;
38787;SDS011;24536;45.488;12.238;2023-04-24T08:36:31;5.05;;;3.45;;
38787;SDS011;24536;45.488;12.238;2023-04-24T08:38:57;5.05;;;3.05;;
38787;SDS011;24536;45.488;12.238;2023-04-24T08:41:23;4.55;;;3.53;;
38787;SDS011;24536;45.488;12.238;2023-04-24T08:43:51;7.05;;;4.22;;
38787;SDS011;24536;45.488;12.238;2023-04-24T08:46:17;3.72;;;3.42;;
38787;SDS011;24536;45.488;12.238;2023-04-24T08:48:44;4.63;;;3.28;;
38787;SDS011;24536;45.488;12.238;2023-04-24T08:51:10;4.43;;;3.50;;
38787;SDS011;24536;45.488;12.238;2023-04-24T08:53:37;5.03;;;3.72;;
38787;SDS011;24536;45.488;12.238;2023-04-24T08:56:03;4.05;;;2.95;;
38787;SDS011;24536;45.488;12.238;2023-04-24T08:58:31;3.13;;;2.40;;
38787;SDS011;24536;45.488;12.238;2023-04-24T09:00:57;4.28;;;3.45;;
38787;SDS011;24536;45.488;12.238;2023-04-24T09:03:24;3.08;;;2.47;;
38787;SDS011;24536;45.488;12.238;2023-04-24T09:05:52;2.97;;;2.65;;
38787;SDS011;24536;45.488;12.238;2023-04-24T09:08:25;5.50;;;3.00;;
38787;SDS011;24536;45.488;12.238;2023-04-24T09:10:53;3.90;;;2.88;;
38787;SDS011;24536;45.488;12.238;2023-04-24T09:13:19;4.60;;;3.25;;
38787;SDS011;24536;45.488;12.238;2023-04-24T09:15:45;3.45;;;2.90;;
38787;SDS011;24536;45.488;12.238;2023-04-24T09:18:11;6.00;;;4.60;;
38787;SDS011;24536;45.488;12.238;2023-04-24T09:23:42;3.97;;;3.17;;
38787;SDS011;24536;45.488;12.238;2023-04-24T09:26:09;4.82;;;3.60;;
38787;SDS011;24536;45.488;12.238;2023-04-24T09:28:36;4.60;;;3.47;;
38787;SDS011;24536;45.488;12.238;2023-04-24T09:31:14;4.70;;;3.50;;
38787;SDS011;24536;45.488;12.238;2023-04-24T09:33:57;4.40;;;3.30;;
38787;SDS011;24536;45.488;12.238;2023-04-24T09:36:34;4.75;;;3.15;;
38787;SDS011;24536;45.488;12.238;2023-04-24T09:39:13;5.35;;;2.88;;
38787;SDS011;24536;45.488;12.238;2023-04-24T09:41:47;3.33;;;2.70;;
38787;SDS011;24536;45.488;12.238;2023-04-24T09:44:15;5.10;;;3.17;;
38787;SDS011;24536;45.488;12.238;2023-04-24T09:46:43;6.45;;;4.22;;
38787;SDS011;24536;45.488;12.238;2023-04-24T09:49:12;5.18;;;3.50;;
38787;SDS011;24536;45.488;12.238;2023-04-24T09:51:40;2.55;;;2.30;;
38787;SDS011;24536;45.488;12.238;2023-04-24T09:54:16;4.32;;;2.28;;
38787;SDS011;24536;45.488;12.238;2023-04-24T09:56:45;5.93;;;3.28;;
38787;SDS011;24536;45.488;12.238;2023-04-24T09:59:13;2.90;;;2.60;;
38787;SDS011;24536;45.488;12.238;2023-04-24T10:01:39;3.67;;;2.67;;
38787;SDS011;24536;45.488;12.238;2023-04-24T10:04:16;2.28;;;1.83;;
38787;SDS011;24536;45.488;12.238;2023-04-24T10:06:43;3.65;;;2.38;;
38787;SDS011;24536;45.488;12.238;2023-04-24T10:09:09;6.00;;;2.22;;
38787;SDS011;24536;45.488;12.238;2023-04-24T10:11:43;4.78;;;2.55;;
38787;SDS011;24536;45.488;12.238;2023-04-24T10:14:16;5.68;;;1.98;;
38787;SDS011;24536;45.488;12.238;2023-04-24T10:16:43;3.65;;;1.63;;
38787;SDS011;24536;45.488;12.238;2023-04-24T10:19:11;3.78;;;1.75;;
38787;SDS011;24536;45.488;12.238;2023-04-24T10:21:38;6.88;;;2.50;;
38787;SDS011;24536;45.488;12.238;2023-04-24T10:24:10;4.40;;;2.03;;
38787;SDS011;24536;45.488;12.238;2023-04-24T10:26:37;2.33;;;1.40;;
38787;SDS011;24536;45.488;12.238;2023-04-24T10:29:05;2.65;;;1.77;;
38787;SDS011;24536;45.488;12.238;2023-04-24T10:31:36;1.67;;;1.50;;
38787;SDS011;24536;45.488;12.238;2023-04-24T10:34:03;3.67;;;1.75;;
38787;SDS011;24536;45.488;12.238;2023-04-24T10:36:30;2.75;;;1.30;;
38787;SDS011;24536;45.488;12.238;2023-04-24T10:38:57;3.13;;;1.60;;
38787;SDS011;24536;45.488;12.238;2023-04-24T10:41:26;2.10;;;1.10;;
38787;SDS011;24536;45.488;12.238;2023-04-24T10:44:11;4.82;;;1.83;;
38787;SDS011;24536;45.488;12.238;2023-04-24T10:46:38;2.25;;;1.80;;
38787;SDS011;24536;45.488;12.238;2023-04-24T10:49:07;2.50;;;1.45;;
38787;SDS011;24536;45.488;12.238;2023-04-24T10:51:44;1.85;;;1.30;;
38787;SDS011;24536;45.488;12.238;2023-04-24T10:54:27;2.55;;;2.20;;
38787;SDS011;24536;45.488;12.238;2023-04-24T10:59:46;3.17;;;2.00;;
38787;SDS011;24536;45.488;12.238;2023-04-24T11:02:15;1.48;;;1.30;;
38787;SDS011;24536;45.488;12.238;2023-04-24T11:04:42;1.77;;;1.30;;
38787;SDS011;24536;45.488;12.238;2023-04-24T11:07:10;2.53;;;1.35;;
38787;SDS011;24536;45.488;12.238;2023-04-24T11:09:36;1.48;;;0.90;;
38787;SDS011;24536;45.488;12.238;2023-04-24T11:12:11;3.25;;;1.00;;
38787;SDS011;24536;45.488;12.238;2023-04-24T11:15:21;1.58;;;0.80;;
38787;SDS011;24536;45.488;12.238;2023-04-24T11:17:32;1.20;;;0.70;;
38787;SDS011;24536;45.488;12.238;2023-04-24T11:22:41;0.70;;;0.40;;
38787;SDS011;24536;45.488;12.238;2023-04-24T11:25:07;0.80;;;0.60;;
38787;SDS011;24536;45.488;12.238;2023-04-24T11:27:41;0.47;;;0.47;;
38787;SDS011;24536;45.488;12.238;2023-04-24T11:30:08;0.63;;;0.40;;
38787;SDS011;24536;45.488;12.238;2023-04-24T11:32:39;1.23;;;0.28;;
38787;SDS011;24536;45.488;12.238;2023-04-24T11:35:08;0.20;;;0.20;;
38787;SDS011;24536;45.488;12.238;2023-04-24T11:40:01;0.55;;;0.40;;
38787;SDS011;24536;45.488;12.238;2023-04-24T11:42:27;0.30;;;0.30;;
38787;SDS011;24536;45.488;12.238;2023-04-24T11:44:53;0.93;;;0.50;;
38787;SDS011;24536;45.488;12.238;2023-04-24T11:47:29;0.20;;;0.20;;
38787;SDS011;24536;45.488;12.238;2023-04-24T11:49:55;0.60;;;0.20;;
38787;SDS011;24536;45.488;12.238;2023-04-24T11:52:21;0.98;;;0.25;;
38787;SDS011;24536;45.488;12.238;2023-04-24T11:54:47;2.50;;;0.50;;
38787;SDS011;24536;45.488;12.238;2023-04-24T11:57:15;0.13;;;0.13;;
38787;SDS011;24536;45.488;12.238;2023-04-24T11:59:41;0.63;;;0.30;;
38787;SDS011;24536;45.488;12.238;2023-04-24T12:02:07;1.58;;;0.30;;
38787;SDS011;24536;45.488;12.238;2023-04-24T12:04:39;1.05;;;0.55;;
38787;SDS011;24536;45.488;12.238;2023-04-24T12:07:07;0.25;;;0.20;;
38787;SDS011;24536;45.488;12.238;2023-04-24T12:09:45;1.05;;;0.30;;
38787;SDS011;24536;45.488;12.238;2023-04-24T12:12:16;0.22;;;0.20;;
38787;SDS011;24536;45.488;12.238;2023-04-24T12:14:52;1.38;;;0.20;;
38787;SDS011;24536;45.488;12.238;2023-04-24T12:17:40;0.28;;;0.22;;
38787;SDS011;24536;45.488;12.238;2023-04-24T12:20:07;0.10;;;0.00;;
38787;SDS011;24536;45.488;12.238;2023-04-24T12:22:52;0.20;;;0.20;;
38787;SDS011;24536;45.488;12.238;2023-04-24T12:25:20;0.10;;;0.10;;
38787;SDS011;24536;45.488;12.238;2023-04-24T12:27:55;0.20;;;0.20;;
38787;SDS011;24536;45.488;12.238;2023-04-24T12:30:30;0.20;;;0.20;;
38787;SDS011;24536;45.488;12.238;2023-04-24T12:33:03;0.22;;;0.10;;
38787;SDS011;24536;45.488;12.238;2023-04-24T12:35:29;1.00;;;0.20;;
38787;SDS011;24536;45.488;12.238;2023-04-24T12:38:05;1.27;;;0.40;;
38787;SDS011;24536;45.488;12.238;2023-04-24T12:40:35;0.40;;;0.32;;
38787;SDS011;24536;45.488;12.238;2023-04-24T12:43:01;0.47;;;0.20;;
38787;SDS011;24536;45.488;12.238;2023-04-24T12:45:37;0.10;;;0.10;;
38787;SDS011;24536;45.488;12.238;2023-04-24T12:48:02;0.20;;;0.20;;
38787;SDS011;24536;45.488;12.238;2023-04-24T12:50:28;0.32;;;0.20;;
38787;SDS011;24536;45.488;12.238;2023-04-24T12:52:54;0.10;;;0.10;;
38787;SDS011;24536;45.488;12.238;2023-04-24T12:55:20;0.20;;;0.20;;
38787;SDS011;24536;45.488;12.238;2023-04-24T12:57:45;0.15;;;0.10;;
38787;SDS011;24536;45.488;12.238;2023-04-24T13:00:11;0.50;;;0.30;;
38787;SDS011;24536;45.488;12.238;2023-04-24T13:02:37;0.85;;;0.20;;
38787;SDS011;24536;45.488;12.238;2023-04-24T13:05:04;3.72;;;0.30;;
38787;SDS011;24536;45.488;12.238;2023-04-24T13:07:30;0.10;;;0.10;;
38787;SDS011;24536;45.488;12.238;2023-04-24T13:09:59;0.85;;;0.20;;
38787;SDS011;24536;45.488;12.238;2023-04-24T13:12:24;0.20;;;0.20;;
38787;SDS011;24536;45.488;12.238;2023-04-24T13:14:51;0.30;;;0.25;;
38787;SDS011;24536;45.488;12.238;2023-04-24T13:17:17;0.35;;;0.30;;
38787;SDS011;24536;45.488;12.238;2023-04-24T13:19:43;0.45;;;0.30;;
38787;SDS011;24536;45.488;12.238;2023-04-24T13:22:10;0.20;;;0.20;;
38787;SDS011;24536;45.488;12.238;2023-04-24T13:24:37;0.25;;;0.20;;
38787;SDS011;24536;45.488;12.238;2023-04-24T13:27:05;0.10;;;0.10;;
38787;SDS011;24536;45.488;12.238;2023-04-24T13:29:31;0.40;;;0.28;;
38787;SDS011;24536;45.488;12.238;2023-04-24T13:31:57;0.43;;;0.30;;
38787;SDS011;24536;45.488;12.238;2023-04-24T13:34:23;0.85;;;0.40;;
38787;SDS011;24536;45.488;12.238;2023-04-24T13:36:53;1.25;;;0.20;;
38787;SDS011;24536;45.488;12.238;2023-04-24T13:39:20;0.38;;;0.20;;
38787;SDS011;24536;45.488;12.238;2023-04-24T13:41:46;6.53;;;0.82;;
38787;SDS011;24536;45.488;12.238;2023-04-24T13:44:13;0.90;;;0.40;;
38787;SDS011;24536;45.488;12.238;2023-04-24T13:46:42;1.50;;;0.30;;
38787;SDS011;24536;45.488;12.238;2023-04-24T13:49:10;0.57;;;0.20;;
38787;SDS011;24536;45.488;12.238;2023-04-24T13:51:36;0.55;;;0.20;;
38787;SDS011;24536;45.488;12.238;2023-04-24T13:54:02;0.32;;;0.20;;
38787;SDS011;24536;45.488;12.238;2023-04-24T13:56:28;2.47;;;0.38;;
38787;SDS011;24536;45.488;12.238;2023-04-24T13:58:54;0.32;;;0.10;;
38787;SDS011;24536;45.488;12.238;2023-04-24T14:01:19;0.52;;;0.30;;
38787;SDS011;24536;45.488;12.238;2023-04-24T14:03:49;0.30;;;0.20;;
38787;SDS011;24536;45.488;12.238;2023-04-24T14:06:15;0.55;;;0.13;;
38787;SDS011;24536;45.488;12.238;2023-04-24T14:08:41;0.10;;;0.10;;
38787;SDS011;24536;45.488;12.238;2023-04-24T14:11:06;0.65;;;0.20;;
38787;SDS011;24536;45.488;12.238;2023-04-24T14:13:32;0.10;;;0.10;;
38787;SDS011;24536;45.488;12.238;2023-04-24T14:15:58;0.95;;;0.20;;
38787;SDS011;24536;45.488;12.238;2023-04-24T14:18:23;0.13;;;0.13;;
38787;SDS011;24536;45.488;12.238;2023-04-24T14:20:49;0.20;;;0.20;;
38787;SDS011;24536;45.488;12.238;2023-04-24T14:23:15;0.50;;;0.20;;
38787;SDS011;24536;45.488;12.238;2023-04-24T14:25:41;0.60;;;0.40;;
38787;SDS011;24536;45.488;12.238;2023-04-24T14:28:06;0.15;;;0.10;;
38787;SDS011;24536;45.488;12.238;2023-04-24T14:30:32;0.13;;;0.10;;
38787;SDS011;24536;45.488;12.238;2023-04-24T14:32:58;1.83;;;0.15;;
38787;SDS011;24536;45.488;12.238;2023-04-24T14:35:24;0.20;;;0.10;;
38787;SDS011;24536;45.488;12.238;2023-04-24T14:37:49;0.10;;;0.10;;
38787;SDS011;24536;45.488;12.238;2023-04-24T14:40:16;0.10;;;0.10;;
38787;SDS011;24536;45.488;12.238;2023-04-24T14:42:41;0.30;;;0.20;;
38787;SDS011;24536;45.488;12.238;2023-04-24T14:45:07;0.10;;;0.10;;
38787;SDS011;24536;45.488;12.238;2023-04-24T14:47:33;1.40;;;0.25;;
38787;SDS011;24536;45.488;12.238;2023-04-24T14:49:59;0.32;;;0.30;;